sensor_id;sensor_type;location;lat;lon;timestamp;temperature;humidity
43320;DHT22;28914;48.722;9.332;2024-01-15T00:03:38;1.50;72.10
43320;DHT22;28914;48.722;9.332;2024-01-15T00:08:57;1.50;72.20
43320;DHT22;28914;48.722;9.332;2024-01-15T00:14:17;1.50;72.30
43320;DHT22;28914;48.722;9.332;2024-01-15T00:19:39;1.50;72.30
43320;DHT22;28914;48.722;9.332;2024-01-15T00:24:58;1.50;72.30
43320;DHT22;28914;48.722;9.332;2024-01-15T00:30:17;1.60;72.40
43320;DHT22;28914;48.722;9.332;2024-01-15T00:35:36;1.60;72.30
43320;DHT22;28914;48.722;9.332;2024-01-15T00:40:55;1.60;72.20
43320;DHT22;28914;48.722;9.332;2024-01-15T00:46:15;1.60;72.10
43320;DHT22;28914;48.722;9.332;2024-01-15T00:51:34;1.70;72.20
43320;DHT22;28914;48.722;9.332;2024-01-15T00:56:53;1.60;71.90
43320;DHT22;28914;48.722;9.332;2024-01-15T01:02:14;1.50;71.70
43320;DHT22;28914;48.722;9.332;2024-01-15T01:07:33;1.40;71.70
43320;DHT22;28914;48.722;9.332;2024-01-15T01:12:52;1.30;71.80
43320;DHT22;28914;48.722;9.332;2024-01-15T01:18:11;1.30;72.10
43320;DHT22;28914;48.722;9.332;2024-01-15T01:23:31;1.10;72.00
43320;DHT22;28914;48.722;9.332;2024-01-15T01:28:50;1.00;72.20
43320;DHT22;28914;48.722;9.332;2024-01-15T01:34:09;0.90;72.30
43320;DHT22;28914;48.722;9.332;2024-01-15T01:39:29;0.90;72.70
43320;DHT22;28914;48.722;9.332;2024-01-15T01:44:48;0.90;73.50
43320;DHT22;28914;48.722;9.332;2024-01-15T01:50:07;0.90;73.50
43320;DHT22;28914;48.722;9.332;2024-01-15T01:55:27;0.90;73.50
43320;DHT22;28914;48.722;9.332;2024-01-15T02:00:48;1.00;73.80
43320;DHT22;28914;48.722;9.332;2024-01-15T02:06:08;1.10;73.80
43320;DHT22;28914;48.722;9.332;2024-01-15T02:11:27;1.20;74.00
43320;DHT22;28914;48.722;9.332;2024-01-15T02:16:46;1.30;73.80
43320;DHT22;28914;48.722;9.332;2024-01-15T02:22:05;1.40;74.00
43320;DHT22;28914;48.722;9.332;2024-01-15T02:27:25;1.50;74.10
43320;DHT22;28914;48.722;9.332;2024-01-15T02:32:44;1.60;73.90
43320;DHT22;28914;48.722;9.332;2024-01-15T02:38:05;1.60;73.80
43320;DHT22;28914;48.722;9.332;2024-01-15T02:43:24;1.70;73.80
43320;DHT22;28914;48.722;9.332;2024-01-15T02:48:44;1.80;73.70
43320;DHT22;28914;48.722;9.332;2024-01-15T02:54:03;1.90;73.70
43320;DHT22;28914;48.722;9.332;2024-01-15T02:59:22;2.00;73.80
43320;DHT22;28914;48.722;9.332;2024-01-15T03:04:44;2.00;73.60
43320;DHT22;28914;48.722;9.332;2024-01-15T03:10:05;2.10;73.40
43320;DHT22;28914;48.722;9.332;2024-01-15T03:15:25;2.10;73.10
43320;DHT22;28914;48.722;9.332;2024-01-15T03:20:44;2.10;72.70
43320;DHT22;28914;48.722;9.332;2024-01-15T03:26:03;2.00;72.50
43320;DHT22;28914;48.722;9.332;2024-01-15T03:31:22;1.90;72.30
43320;DHT22;28914;48.722;9.332;2024-01-15T03:36:42;1.70;72.20
43320;DHT22;28914;48.722;9.332;2024-01-15T03:42:01;1.60;72.20
43320;DHT22;28914;48.722;9.332;2024-01-15T03:47:20;1.40;72.30
43320;DHT22;28914;48.722;9.332;2024-01-15T03:52:39;1.30;72.50
43320;DHT22;28914;48.722;9.332;2024-01-15T03:57:58;1.10;72.60
43320;DHT22;28914;48.722;9.332;2024-01-15T04:03:17;1.00;73.00
43320;DHT22;28914;48.722;9.332;2024-01-15T04:08:37;1.00;73.30
43320;DHT22;28914;48.722;9.332;2024-01-15T04:13:56;0.90;73.50
43320;DHT22;28914;48.722;9.332;2024-01-15T04:19:15;1.00;74.00
43320;DHT22;28914;48.722;9.332;2024-01-15T04:24:34;1.00;74.20
43320;DHT22;28914;48.722;9.332;2024-01-15T04:29:54;1.00;74.20
43320;DHT22;28914;48.722;9.332;2024-01-15T04:35:13;1.00;74.50
43320;DHT22;28914;48.722;9.332;2024-01-15T04:40:32;1.10;75.40
43320;DHT22;28914;48.722;9.332;2024-01-15T04:45:51;1.20;74.90
43320;DHT22;28914;48.722;9.332;2024-01-15T04:51:10;1.20;74.90
43320;DHT22;28914;48.722;9.332;2024-01-15T04:56:29;1.30;75.00
43320;DHT22;28914;48.722;9.332;2024-01-15T05:01:49;1.40;75.10
43320;DHT22;28914;48.722;9.332;2024-01-15T05:07:08;1.50;75.10
43320;DHT22;28914;48.722;9.332;2024-01-15T05:12:27;1.60;75.20
43320;DHT22;28914;48.722;9.332;2024-01-15T05:17:46;1.70;75.20
43320;DHT22;28914;48.722;9.332;2024-01-15T05:23:05;1.80;75.20
43320;DHT22;28914;48.722;9.332;2024-01-15T05:28:24;1.90;75.50
43320;DHT22;28914;48.722;9.332;2024-01-15T05:33:44;2.00;75.70
43320;DHT22;28914;48.722;9.332;2024-01-15T05:39:03;2.20;75.80
43320;DHT22;28914;48.722;9.332;2024-01-15T05:44:22;2.40;75.60
43320;DHT22;28914;48.722;9.332;2024-01-15T05:49:42;2.60;75.50
43320;DHT22;28914;48.722;9.332;2024-01-15T05:55:01;2.70;75.20
43320;DHT22;28914;48.722;9.332;2024-01-15T06:00:20;2.90;75.00
43320;DHT22;28914;48.722;9.332;2024-01-15T06:05:39;3.00;74.80
43320;DHT22;28914;48.722;9.332;2024-01-15T06:10:59;3.20;74.60
43320;DHT22;28914;48.722;9.332;2024-01-15T06:16:18;3.30;74.30
43320;DHT22;28914;48.722;9.332;2024-01-15T06:21:39;3.40;74.10
43320;DHT22;28914;48.722;9.332;2024-01-15T06:26:58;3.40;73.80
43320;DHT22;28914;48.722;9.332;2024-01-15T06:32:17;3.50;73.70
43320;DHT22;28914;48.722;9.332;2024-01-15T06:37:37;3.50;73.40
43320;DHT22;28914;48.722;9.332;2024-01-15T06:42:56;3.60;73.30
43320;DHT22;28914;48.722;9.332;2024-01-15T06:48:16;3.60;73.10
43320;DHT22;28914;48.722;9.332;2024-01-15T06:53:35;3.70;72.90
43320;DHT22;28914;48.722;9.332;2024-01-15T06:58:54;3.70;72.80
43320;DHT22;28914;48.722;9.332;2024-01-15T07:04:15;3.70;72.70
43320;DHT22;28914;48.722;9.332;2024-01-15T07:09:34;3.80;72.70
43320;DHT22;28914;48.722;9.332;2024-01-15T07:14:54;3.80;72.50
43320;DHT22;28914;48.722;9.332;2024-01-15T07:20:14;3.80;72.30
43320;DHT22;28914;48.722;9.332;2024-01-15T07:25:33;3.80;72.20
43320;DHT22;28914;48.722;9.332;2024-01-15T07:30:52;3.80;72.00
43320;DHT22;28914;48.722;9.332;2024-01-15T07:36:11;4.00;71.80
43320;DHT22;28914;48.722;9.332;2024-01-15T07:41:31;3.90;71.50
43320;DHT22;28914;48.722;9.332;2024-01-15T07:46:51;4.00;71.40
43320;DHT22;28914;48.722;9.332;2024-01-15T07:52:11;4.00;71.30
43320;DHT22;28914;48.722;9.332;2024-01-15T07:57:32;4.10;71.20
43320;DHT22;28914;48.722;9.332;2024-01-15T08:02:51;4.20;71.10
43320;DHT22;28914;48.722;9.332;2024-01-15T08:08:12;4.30;70.90
43320;DHT22;28914;48.722;9.332;2024-01-15T08:13:31;4.30;70.80
43320;DHT22;28914;48.722;9.332;2024-01-15T08:18:50;4.40;70.70
43320;DHT22;28914;48.722;9.332;2024-01-15T08:24:09;4.40;70.40
43320;DHT22;28914;48.722;9.332;2024-01-15T08:29:28;4.50;70.30
43320;DHT22;28914;48.722;9.332;2024-01-15T08:34:47;4.60;70.20
43320;DHT22;28914;48.722;9.332;2024-01-15T08:40:11;4.70;70.00
43320;DHT22;28914;48.722;9.332;2024-01-15T08:45:30;4.70;69.80
43320;DHT22;28914;48.722;9.332;2024-01-15T08:50:49;4.80;69.20
43320;DHT22;28914;48.722;9.332;2024-01-15T08:56:08;4.80;69.20
43320;DHT22;28914;48.722;9.332;2024-01-15T09:01:27;4.90;69.10
43320;DHT22;28914;48.722;9.332;2024-01-15T09:06:47;5.00;68.80
43320;DHT22;28914;48.722;9.332;2024-01-15T09:12:06;5.20;68.90
43320;DHT22;28914;48.722;9.332;2024-01-15T09:17:26;5.30;68.60
43320;DHT22;28914;48.722;9.332;2024-01-15T09:22:47;5.30;67.80
43320;DHT22;28914;48.722;9.332;2024-01-15T09:28:06;5.40;67.70
43320;DHT22;28914;48.722;9.332;2024-01-15T09:33:25;5.50;67.50
43320;DHT22;28914;48.722;9.332;2024-01-15T09:38:45;5.50;66.80
43320;DHT22;28914;48.722;9.332;2024-01-15T09:44:04;5.60;66.80
43320;DHT22;28914;48.722;9.332;2024-01-15T09:49:23;5.60;67.00
43320;DHT22;28914;48.722;9.332;2024-01-15T09:54:44;5.80;67.00
43320;DHT22;28914;48.722;9.332;2024-01-15T10:00:05;5.90;66.80
43320;DHT22;28914;48.722;9.332;2024-01-15T10:05:26;6.00;66.70
43320;DHT22;28914;48.722;9.332;2024-01-15T10:10:45;6.10;66.60
43320;DHT22;28914;48.722;9.332;2024-01-15T10:16:05;6.20;66.30
43320;DHT22;28914;48.722;9.332;2024-01-15T10:21:25;6.30;65.60
43320;DHT22;28914;48.722;9.332;2024-01-15T10:26:45;6.30;65.30
43320;DHT22;28914;48.722;9.332;2024-01-15T10:32:08;6.30;64.70
43320;DHT22;28914;48.722;9.332;2024-01-15T10:37:27;6.30;64.60
43320;DHT22;28914;48.722;9.332;2024-01-15T10:42:47;6.30;64.70
43320;DHT22;28914;48.722;9.332;2024-01-15T10:48:06;6.30;64.80
43320;DHT22;28914;48.722;9.332;2024-01-15T10:53:27;6.30;64.70
43320;DHT22;28914;48.722;9.332;2024-01-15T10:58:49;6.30;64.60
43320;DHT22;28914;48.722;9.332;2024-01-15T11:04:09;6.40;64.20
43320;DHT22;28914;48.722;9.332;2024-01-15T11:09:28;6.40;64.30
43320;DHT22;28914;48.722;9.332;2024-01-15T11:14:49;6.40;64.30
43320;DHT22;28914;48.722;9.332;2024-01-15T11:20:08;6.50;64.30
43320;DHT22;28914;48.722;9.332;2024-01-15T11:25:35;6.60;63.90
43320;DHT22;28914;48.722;9.332;2024-01-15T11:30:56;6.60;64.00
43320;DHT22;28914;48.722;9.332;2024-01-15T11:36:15;6.70;64.20
43320;DHT22;28914;48.722;9.332;2024-01-15T11:41:35;6.80;64.20
43320;DHT22;28914;48.722;9.332;2024-01-15T11:46:59;6.80;64.00
43320;DHT22;28914;48.722;9.332;2024-01-15T11:52:20;6.80;63.80
43320;DHT22;28914;48.722;9.332;2024-01-15T11:58:01;6.80;63.90
43320;DHT22;28914;48.722;9.332;2024-01-15T12:03:22;6.90;64.20
43320;DHT22;28914;48.722;9.332;2024-01-15T12:08:42;6.90;63.60
43320;DHT22;28914;48.722;9.332;2024-01-15T12:14:01;6.80;63.50
43320;DHT22;28914;48.722;9.332;2024-01-15T12:19:21;6.70;63.80
43320;DHT22;28914;48.722;9.332;2024-01-15T12:24:40;6.70;63.80
43320;DHT22;28914;48.722;9.332;2024-01-15T12:29:59;6.60;64.30
43320;DHT22;28914;48.722;9.332;2024-01-15T12:35:18;6.60;65.40
43320;DHT22;28914;48.722;9.332;2024-01-15T12:40:38;6.50;66.10
43320;DHT22;28914;48.722;9.332;2024-01-15T12:45:57;6.40;66.70
43320;DHT22;28914;48.722;9.332;2024-01-15T12:51:16;6.30;67.50
43320;DHT22;28914;48.722;9.332;2024-01-15T12:56:35;6.20;68.70
43320;DHT22;28914;48.722;9.332;2024-01-15T13:01:55;6.00;70.00
43320;DHT22;28914;48.722;9.332;2024-01-15T13:07:14;5.80;70.50
43320;DHT22;28914;48.722;9.332;2024-01-15T13:12:37;5.70;71.20
43320;DHT22;28914;48.722;9.332;2024-01-15T13:17:56;5.60;71.60
43320;DHT22;28914;48.722;9.332;2024-01-15T13:23:16;5.60;72.10
43320;DHT22;28914;48.722;9.332;2024-01-15T13:28:35;5.60;72.60
43320;DHT22;28914;48.722;9.332;2024-01-15T13:33:54;5.60;72.70
43320;DHT22;28914;48.722;9.332;2024-01-15T13:39:14;5.60;73.10
43320;DHT22;28914;48.722;9.332;2024-01-15T13:44:38;5.60;73.10
43320;DHT22;28914;48.722;9.332;2024-01-15T13:49:57;5.50;73.30
43320;DHT22;28914;48.722;9.332;2024-01-15T13:55:16;5.50;73.60
43320;DHT22;28914;48.722;9.332;2024-01-15T14:00:35;5.50;73.60
43320;DHT22;28914;48.722;9.332;2024-01-15T14:05:55;5.50;74.80
43320;DHT22;28914;48.722;9.332;2024-01-15T14:11:14;5.50;74.10
43320;DHT22;28914;48.722;9.332;2024-01-15T14:16:33;5.50;74.10
43320;DHT22;28914;48.722;9.332;2024-01-15T14:21:53;5.40;74.30
43320;DHT22;28914;48.722;9.332;2024-01-15T14:27:12;5.40;74.60
43320;DHT22;28914;48.722;9.332;2024-01-15T14:32:31;5.40;74.80
43320;DHT22;28914;48.722;9.332;2024-01-15T14:37:50;5.30;75.10
43320;DHT22;28914;48.722;9.332;2024-01-15T14:43:10;5.20;75.30
43320;DHT22;28914;48.722;9.332;2024-01-15T14:48:30;5.10;75.50
43320;DHT22;28914;48.722;9.332;2024-01-15T14:53:49;5.10;76.20
43320;DHT22;28914;48.722;9.332;2024-01-15T14:59:08;5.00;76.30
43320;DHT22;28914;48.722;9.332;2024-01-15T15:04:27;5.00;76.20
43320;DHT22;28914;48.722;9.332;2024-01-15T15:09:47;4.90;76.20
43320;DHT22;28914;48.722;9.332;2024-01-15T15:15:09;4.90;76.30
43320;DHT22;28914;48.722;9.332;2024-01-15T15:21:18;4.80;75.70
43320;DHT22;28914;48.722;9.332;2024-01-15T15:26:37;4.70;76.10
43320;DHT22;28914;48.722;9.332;2024-01-15T15:31:56;4.70;76.20
43320;DHT22;28914;48.722;9.332;2024-01-15T15:37:15;4.70;76.00
43320;DHT22;28914;48.722;9.332;2024-01-15T15:42:35;4.70;76.10
43320;DHT22;28914;48.722;9.332;2024-01-15T15:47:55;4.70;75.80
43320;DHT22;28914;48.722;9.332;2024-01-15T15:53:14;4.60;75.80
43320;DHT22;28914;48.722;9.332;2024-01-15T15:58:33;4.60;75.90
43320;DHT22;28914;48.722;9.332;2024-01-15T16:03:52;4.50;75.80
43320;DHT22;28914;48.722;9.332;2024-01-15T16:09:12;4.50;75.70
43320;DHT22;28914;48.722;9.332;2024-01-15T16:14:32;4.40;75.50
43320;DHT22;28914;48.722;9.332;2024-01-15T16:19:51;4.40;75.30
43320;DHT22;28914;48.722;9.332;2024-01-15T16:25:11;4.40;75.20
43320;DHT22;28914;48.722;9.332;2024-01-15T16:30:30;4.30;75.10
43320;DHT22;28914;48.722;9.332;2024-01-15T16:35:49;4.30;74.90
43320;DHT22;28914;48.722;9.332;2024-01-15T16:41:08;4.30;74.80
43320;DHT22;28914;48.722;9.332;2024-01-15T16:46:27;4.30;74.60
43320;DHT22;28914;48.722;9.332;2024-01-15T16:51:47;4.30;74.30
43320;DHT22;28914;48.722;9.332;2024-01-15T16:57:05;4.20;74.10
43320;DHT22;28914;48.722;9.332;2024-01-15T17:02:25;4.20;74.10
43320;DHT22;28914;48.722;9.332;2024-01-15T17:07:45;4.20;73.90
43320;DHT22;28914;48.722;9.332;2024-01-15T17:13:05;4.20;73.80
43320;DHT22;28914;48.722;9.332;2024-01-15T17:18:25;4.20;73.80
43320;DHT22;28914;48.722;9.332;2024-01-15T17:23:44;4.20;73.70
43320;DHT22;28914;48.722;9.332;2024-01-15T17:29:05;4.20;73.60
43320;DHT22;28914;48.722;9.332;2024-01-15T17:34:24;4.20;73.40
43320;DHT22;28914;48.722;9.332;2024-01-15T17:39:44;4.20;73.30
43320;DHT22;28914;48.722;9.332;2024-01-15T17:45:03;4.20;73.30
43320;DHT22;28914;48.722;9.332;2024-01-15T17:50:22;4.20;73.20
43320;DHT22;28914;48.722;9.332;2024-01-15T17:55:42;4.30;73.10
43320;DHT22;28914;48.722;9.332;2024-01-15T18:01:01;4.20;73.10
43320;DHT22;28914;48.722;9.332;2024-01-15T18:06:21;4.20;73.00
43320;DHT22;28914;48.722;9.332;2024-01-15T18:11:40;4.20;72.90
43320;DHT22;28914;48.722;9.332;2024-01-15T18:16:59;4.30;73.00
43320;DHT22;28914;48.722;9.332;2024-01-15T18:22:19;4.20;72.80
43320;DHT22;28914;48.722;9.332;2024-01-15T18:27:38;4.20;72.80
43320;DHT22;28914;48.722;9.332;2024-01-15T18:32:57;4.20;72.70
43320;DHT22;28914;48.722;9.332;2024-01-15T18:38:18;4.10;72.40
43320;DHT22;28914;48.722;9.332;2024-01-15T18:43:37;3.90;72.20
43320;DHT22;28914;48.722;9.332;2024-01-15T18:48:57;3.80;72.20
43320;DHT22;28914;48.722;9.332;2024-01-15T18:54:16;3.60;72.30
43320;DHT22;28914;48.722;9.332;2024-01-15T18:59:35;3.50;72.30
43320;DHT22;28914;48.722;9.332;2024-01-15T19:04:56;3.40;72.50
43320;DHT22;28914;48.722;9.332;2024-01-15T19:10:15;3.20;73.00
43320;DHT22;28914;48.722;9.332;2024-01-15T19:15:34;3.20;73.60
43320;DHT22;28914;48.722;9.332;2024-01-15T19:20:53;3.20;74.00
43320;DHT22;28914;48.722;9.332;2024-01-15T19:26:20;3.20;73.90
43320;DHT22;28914;48.722;9.332;2024-01-15T19:31:39;3.30;73.80
43320;DHT22;28914;48.722;9.332;2024-01-15T19:36:58;3.40;73.60
43320;DHT22;28914;48.722;9.332;2024-01-15T19:42:17;3.40;73.40
43320;DHT22;28914;48.722;9.332;2024-01-15T19:47:36;3.50;73.60
43320;DHT22;28914;48.722;9.332;2024-01-15T19:52:56;3.60;73.50
43320;DHT22;28914;48.722;9.332;2024-01-15T19:58:15;3.60;73.40
43320;DHT22;28914;48.722;9.332;2024-01-15T20:03:34;3.70;73.20
43320;DHT22;28914;48.722;9.332;2024-01-15T20:08:53;3.80;73.10
43320;DHT22;28914;48.722;9.332;2024-01-15T20:14:13;3.80;72.80
43320;DHT22;28914;48.722;9.332;2024-01-15T20:19:32;3.80;72.00
43320;DHT22;28914;48.722;9.332;2024-01-15T20:24:52;3.80;71.90
43320;DHT22;28914;48.722;9.332;2024-01-15T20:30:11;3.90;72.00
43320;DHT22;28914;48.722;9.332;2024-01-15T20:35:31;3.90;71.50
43320;DHT22;28914;48.722;9.332;2024-01-15T20:40:50;3.90;71.30
43320;DHT22;28914;48.722;9.332;2024-01-15T20:46:09;3.90;71.10
43320;DHT22;28914;48.722;9.332;2024-01-15T20:51:28;3.90;70.90
43320;DHT22;28914;48.722;9.332;2024-01-15T20:56:48;4.00;71.00
43320;DHT22;28914;48.722;9.332;2024-01-15T21:02:07;4.00;70.80
43320;DHT22;28914;48.722;9.332;2024-01-15T21:07:26;4.00;70.60
43320;DHT22;28914;48.722;9.332;2024-01-15T21:12:47;4.00;70.60
43320;DHT22;28914;48.722;9.332;2024-01-15T21:18:06;4.00;70.60
43320;DHT22;28914;48.722;9.332;2024-01-15T21:23:25;4.00;70.60
43320;DHT22;28914;48.722;9.332;2024-01-15T21:28:45;4.00;70.70
43320;DHT22;28914;48.722;9.332;2024-01-15T21:34:04;4.00;70.70
43320;DHT22;28914;48.722;9.332;2024-01-15T21:39:23;4.00;70.60
43320;DHT22;28914;48.722;9.332;2024-01-15T21:44:43;4.00;70.50
43320;DHT22;28914;48.722;9.332;2024-01-15T21:50:06;4.00;70.50
43320;DHT22;28914;48.722;9.332;2024-01-15T21:55:27;4.00;70.40
43320;DHT22;28914;48.722;9.332;2024-01-15T22:00:46;4.00;70.20
43320;DHT22;28914;48.722;9.332;2024-01-15T22:06:06;4.10;70.20
43320;DHT22;28914;48.722;9.332;2024-01-15T22:11:25;4.10;70.40
43320;DHT22;28914;48.722;9.332;2024-01-15T22:16:44;4.10;70.20
43320;DHT22;28914;48.722;9.332;2024-01-15T22:22:04;4.00;70.20
43320;DHT22;28914;48.722;9.332;2024-01-15T22:27:23;4.00;70.00
43320;DHT22;28914;48.722;9.332;2024-01-15T22:32:42;4.00;69.70
43320;DHT22;28914;48.722;9.332;2024-01-15T22:38:01;4.00;69.70
43320;DHT22;28914;48.722;9.332;2024-01-15T22:43:20;3.90;69.70
43320;DHT22;28914;48.722;9.332;2024-01-15T22:48:39;4.00;69.90
43320;DHT22;28914;48.722;9.332;2024-01-15T22:53:59;4.00;69.90
43320;DHT22;28914;48.722;9.332;2024-01-15T22:59:18;4.00;70.00
43320;DHT22;28914;48.722;9.332;2024-01-15T23:04:38;4.00;70.10
43320;DHT22;28914;48.722;9.332;2024-01-15T23:10:00;4.00;70.00
43320;DHT22;28914;48.722;9.332;2024-01-15T23:15:20;4.00;70.10
43320;DHT22;28914;48.722;9.332;2024-01-15T23:20:41;4.00;70.20
43320;DHT22;28914;48.722;9.332;2024-01-15T23:26:01;4.00;70.20
43320;DHT22;28914;48.722;9.332;2024-01-15T23:31:20;4.00;70.20
43320;DHT22;28914;48.722;9.332;2024-01-15T23:36:41;4.00;70.20
43320;DHT22;28914;48.722;9.332;2024-01-15T23:42:01;4.00;70.20
43320;DHT22;28914;48.722;9.332;2024-01-15T23:47:20;3.90;70.10
43320;DHT22;28914;48.722;9.332;2024-01-15T23:52:39;3.90;70.00
43320;DHT22;28914;48.722;9.332;2024-01-15T23:57:59;3.80;70.00
